createdAt,value
2022-08-17T00:00:34.869Z,27.64
2022-08-17T00:03:01.782Z,27.62
2022-08-17T00:05:31.624Z,27.62
2022-08-17T00:08:01.449Z,27.62
2022-08-17T00:10:29.509Z,27.62
2022-08-17T00:13:00.779Z,27.62
2022-08-17T00:15:28.924Z,27.61
2022-08-17T00:17:57.341Z,27.62
2022-08-17T00:20:33.476Z,27.62
2022-08-17T00:23:08.825Z,27.62
2022-08-17T00:25:36.899Z,27.62
2022-08-17T00:28:06.155Z,27.62
2022-08-17T00:30:51.268Z,27.62
2022-08-17T00:33:23.727Z,27.62
2022-08-17T00:35:52.007Z,27.62
2022-08-17T00:38:21.727Z,27.61
2022-08-17T00:40:51.779Z,27.61
2022-08-17T00:43:20.896Z,27.61
2022-08-17T00:45:49.010Z,27.62
2022-08-17T00:48:29.547Z,27.62
2022-08-17T00:51:01.757Z,27.61
2022-08-17T00:53:31.931Z,27.59
2022-08-17T00:56:00.728Z,27.59
2022-08-17T00:58:36.220Z,27.59
2022-08-17T01:01:05.433Z,27.59
2022-08-17T01:03:33.502Z,27.59
2022-08-17T01:06:01.897Z,27.58
2022-08-17T01:08:32.106Z,27.58
2022-08-17T01:11:02.213Z,27.58
2022-08-17T01:13:35.499Z,27.57
2022-08-17T01:16:09.186Z,27.57
2022-08-17T01:18:37.234Z,27.58
2022-08-17T01:21:07.690Z,27.57
2022-08-17T01:23:37.166Z,27.57
2022-08-17T01:26:06.397Z,27.58
2022-08-17T01:28:55.141Z,27.57
2022-08-17T01:31:22.882Z,27.58
2022-08-17T01:33:51.020Z,27.57
2022-08-17T01:36:19.248Z,27.58
2022-08-17T01:38:48.633Z,27.57
2022-08-17T01:41:17.980Z,27.56
2022-08-17T01:43:47.272Z,27.57
2022-08-17T01:46:16.844Z,27.56
2022-08-17T01:48:47.520Z,27.56
2022-08-17T01:51:16.049Z,27.57
2022-08-17T01:53:46.570Z,27.55
2022-08-17T01:56:17.303Z,27.54
2022-08-17T01:58:45.719Z,27.55
2022-08-17T02:01:14.945Z,27.53
2022-08-17T02:03:53.478Z,27.54
2022-08-17T02:06:29.022Z,27.53
2022-08-17T02:09:03.074Z,27.53
2022-08-17T02:11:33.619Z,27.52
2022-08-17T02:14:03.343Z,27.52
2022-08-17T02:16:37.744Z,27.53
2022-08-17T02:19:08.120Z,27.52
2022-08-17T02:21:36.355Z,27.52
2022-08-17T02:24:04.936Z,27.52
2022-08-17T02:26:34.341Z,27.53
2022-08-17T02:29:02.384Z,27.52
2022-08-17T02:31:31.162Z,27.53
2022-08-17T02:34:03.704Z,27.52
2022-08-17T02:36:33.146Z,27.52
2022-08-17T02:39:20.015Z,27.53
2022-08-17T02:41:49.322Z,27.52
2022-08-17T02:44:38.657Z,27.52
2022-08-17T02:47:05.636Z,27.51
2022-08-17T02:49:33.682Z,27.51
2022-08-17T02:52:03.395Z,27.50
2022-08-17T02:54:40.267Z,27.50
2022-08-17T02:57:11.583Z,27.50
2022-08-17T02:59:39.551Z,27.48
2022-08-17T03:02:08.055Z,27.50
2022-08-17T03:04:36.125Z,27.49
2022-08-17T03:07:04.403Z,27.48
2022-08-17T03:09:32.424Z,27.48
2022-08-17T03:12:05.773Z,27.48
2022-08-17T03:14:41.231Z,27.47
2022-08-17T03:17:15.201Z,27.47
2022-08-17T03:19:45.890Z,27.47
2022-08-17T03:22:34.691Z,27.48
2022-08-17T03:25:01.816Z,27.47
2022-08-17T03:27:30.068Z,27.47
2022-08-17T03:29:59.413Z,27.47
2022-08-17T03:32:27.636Z,27.48
2022-08-17T03:34:59.544Z,27.47
2022-08-17T03:37:27.579Z,27.47
2022-08-17T03:39:55.682Z,27.47
2022-08-17T03:42:31.974Z,27.47
2022-08-17T03:45:02.747Z,27.48
2022-08-17T03:47:47.948Z,27.47
2022-08-17T03:50:48.183Z,27.46
2022-08-17T03:53:35.907Z,27.46
2022-08-17T03:56:22.219Z,27.46
2022-08-17T03:58:50.380Z,27.45
2022-08-17T04:01:19.791Z,27.45
2022-08-17T04:03:47.820Z,27.46
2022-08-17T04:06:16.608Z,27.43
2022-08-17T04:08:44.618Z,27.44
2022-08-17T04:11:12.595Z,27.44
2022-08-17T04:13:40.601Z,27.44
2022-08-17T04:16:08.838Z,27.43
2022-08-17T04:18:38.202Z,27.43
2022-08-17T04:21:06.506Z,27.44
2022-08-17T04:23:36.616Z,27.45
2022-08-17T04:26:04.598Z,27.47
2022-08-17T04:28:32.627Z,27.47
2022-08-17T04:31:00.800Z,27.49
2022-08-17T04:33:29.457Z,27.50
2022-08-17T04:36:01.220Z,27.53
2022-08-17T04:38:30.045Z,27.54
2022-08-17T04:41:15.755Z,27.57
2022-08-17T04:43:44.614Z,27.59
2022-08-17T04:46:15.088Z,27.62
2022-08-17T04:48:47.837Z,27.65
2022-08-17T04:51:18.662Z,27.66
2022-08-17T04:53:54.290Z,27.68
2022-08-17T04:56:22.794Z,27.68
2022-08-17T04:58:51.502Z,27.69
2022-08-17T05:01:23.142Z,27.70
2022-08-17T05:03:52.330Z,27.71
2022-08-17T05:06:21.764Z,27.70
2022-08-17T05:08:49.839Z,27.69
2022-08-17T05:11:17.898Z,27.68
2022-08-17T05:13:45.952Z,27.68
2022-08-17T05:16:13.997Z,27.67
2022-08-17T05:18:41.964Z,27.66
2022-08-17T05:21:10.035Z,27.64
2022-08-17T05:23:42.626Z,27.64
2022-08-17T05:26:15.222Z,27.63
2022-08-17T05:28:53.964Z,27.62
2022-08-17T05:31:22.284Z,27.61
2022-08-17T05:33:50.655Z,27.59
2022-08-17T05:36:43.660Z,27.60
2022-08-17T05:39:08.091Z,27.60
2022-08-17T05:41:41.415Z,27.61
2022-08-17T05:44:09.571Z,27.59
2022-08-17T05:46:38.965Z,27.60
2022-08-17T05:49:08.392Z,27.60
2022-08-17T05:51:44.470Z,27.59
2022-08-17T05:54:35.574Z,27.59
2022-08-17T05:57:16.657Z,27.59
2022-08-17T05:59:52.253Z,27.58
2022-08-17T06:02:23.115Z,27.58
2022-08-17T06:05:00.044Z,27.58
2022-08-17T06:07:32.742Z,27.58
2022-08-17T06:10:06.568Z,27.58
2022-08-17T06:12:39.078Z,27.58
2022-08-17T06:15:15.813Z,27.59
2022-08-17T06:17:43.899Z,27.59
2022-08-17T06:20:12.868Z,27.59
2022-08-17T06:22:43.361Z,27.60
2022-08-17T06:25:15.337Z,27.61
2022-08-17T06:27:45.593Z,27.62
2022-08-17T06:30:14.877Z,27.62
2022-08-17T06:32:43.986Z,27.63
2022-08-17T06:35:12.852Z,27.63
2022-08-17T06:37:57.060Z,27.63
2022-08-17T06:40:45.779Z,27.64
2022-08-17T06:43:20.786Z,27.65
2022-08-17T06:45:51.835Z,27.66
2022-08-17T06:48:24.475Z,27.65
2022-08-17T06:50:54.599Z,27.66
2022-08-17T06:53:23.679Z,27.67
2022-08-17T06:55:55.107Z,27.67
2022-08-17T06:58:24.157Z,27.67
2022-08-17T07:01:01.174Z,27.68
2022-08-17T07:03:33.434Z,27.69
2022-08-17T07:06:04.618Z,27.69
2022-08-17T07:08:41.302Z,27.69
2022-08-17T07:11:13.120Z,27.70
2022-08-17T07:13:51.155Z,27.71
2022-08-17T07:16:21.655Z,27.71
2022-08-17T07:18:50.955Z,27.73
2022-08-17T07:21:26.697Z,27.74
2022-08-17T07:24:08.160Z,27.76
2022-08-17T07:26:38.956Z,27.75
2022-08-17T07:29:07.020Z,27.76
2022-08-17T07:31:35.023Z,27.77
2022-08-17T07:34:06.838Z,27.77
2022-08-17T07:36:34.897Z,27.77
2022-08-17T07:39:03.493Z,27.78
2022-08-17T07:41:53.519Z,27.78
2022-08-17T07:44:24.661Z,27.78
2022-08-17T07:47:10.643Z,27.79
2022-08-17T07:49:39.890Z,27.79
2022-08-17T07:52:47.446Z,27.79
2022-08-17T07:54:57.556Z,27.79
2022-08-17T07:57:32.531Z,27.80
2022-08-17T08:00:27.285Z,27.80
2022-08-17T08:03:03.296Z,27.81
2022-08-17T08:05:50.565Z,27.82
2022-08-17T08:08:26.602Z,27.83
2022-08-17T08:11:03.277Z,27.84
2022-08-17T08:13:32.290Z,27.84
2022-08-17T08:16:25.548Z,27.85
2022-08-17T08:18:57.074Z,27.87
2022-08-17T08:21:31.970Z,27.88
2022-08-17T08:24:00.847Z,27.89
2022-08-17T08:26:32.093Z,27.89
2022-08-17T08:29:04.451Z,27.89
2022-08-17T08:31:42.509Z,27.88
2022-08-17T08:34:58.817Z,27.90
2022-08-17T08:37:17.837Z,27.89
2022-08-17T08:39:52.228Z,27.91
2022-08-17T08:42:23.457Z,27.91
2022-08-17T08:45:04.099Z,27.91
2022-08-17T08:47:45.539Z,27.91
2022-08-17T08:50:37.356Z,27.92
2022-08-17T08:53:14.279Z,27.91
2022-08-17T08:55:52.820Z,27.93
2022-08-17T08:58:31.632Z,27.93
2022-08-17T09:01:23.962Z,27.93
2022-08-17T09:04:26.010Z,27.95
2022-08-17T09:07:03.766Z,27.94
2022-08-17T09:09:36.942Z,27.96
2022-08-17T09:12:06.804Z,27.98
2022-08-17T09:14:46.631Z,27.98
2022-08-17T09:17:17.059Z,27.99
2022-08-17T09:19:50.243Z,27.98
2022-08-17T09:22:25.865Z,28.00
2022-08-17T09:24:57.339Z,28.00
2022-08-17T09:27:28.370Z,28.01
2022-08-17T09:29:58.781Z,28.00
2022-08-17T09:32:32.672Z,28.00
2022-08-17T09:35:03.336Z,28.01
2022-08-17T09:37:33.728Z,28.01
2022-08-17T09:40:10.236Z,28.00
2022-08-17T09:42:41.726Z,28.00
2022-08-17T09:45:17.806Z,28.01
2022-08-17T09:47:49.211Z,28.00
2022-08-17T09:51:03.224Z,28.02
2022-08-17T09:53:10.050Z,28.02
2022-08-17T09:55:49.352Z,28.03
2022-08-17T09:58:21.364Z,28.04
2022-08-17T10:00:55.683Z,28.04
2022-08-17T10:03:35.242Z,28.05
2022-08-17T10:06:13.289Z,28.06
2022-08-17T10:08:43.831Z,28.06
2022-08-17T10:11:33.821Z,28.08
2022-08-17T10:14:37.759Z,28.07
2022-08-17T10:16:56.970Z,28.07
2022-08-17T10:19:26.695Z,28.09
2022-08-17T10:22:32.559Z,28.07
2022-08-17T10:25:23.089Z,28.08
2022-08-17T10:27:54.189Z,28.08
2022-08-17T10:30:23.778Z,28.08
2022-08-17T10:32:55.027Z,28.08
2022-08-17T10:35:34.454Z,28.09
2022-08-17T10:38:19.654Z,28.09
2022-08-17T10:40:55.376Z,28.09
2022-08-17T10:43:31.044Z,28.10
2022-08-17T10:46:10.496Z,28.10
2022-08-17T10:49:26.547Z,28.09
2022-08-17T10:51:54.939Z,28.09
2022-08-17T10:54:58.372Z,28.10
2022-08-17T10:57:44.834Z,28.10
2022-08-17T11:00:16.033Z,28.10
2022-08-17T11:02:50.020Z,28.11
2022-08-17T11:05:43.468Z,28.11
2022-08-17T11:08:47.558Z,28.11
2022-08-17T11:11:47.864Z,28.12
2022-08-17T11:14:41.276Z,28.11
2022-08-17T11:17:19.222Z,28.13
2022-08-17T11:19:57.843Z,28.12
2022-08-17T11:23:00.900Z,28.12
2022-08-17T11:25:39.351Z,28.14
2022-08-17T11:28:09.289Z,28.13
2022-08-17T11:30:48.930Z,28.13
2022-08-17T11:33:55.787Z,28.14
2022-08-17T11:36:50.199Z,28.15
2022-08-17T11:39:33.573Z,28.16
2022-08-17T11:42:05.995Z,28.16
2022-08-17T11:44:42.405Z,28.17
2022-08-17T11:47:30.256Z,28.17
2022-08-17T11:50:27.712Z,28.20
2022-08-17T11:52:56.118Z,28.20
2022-08-17T11:55:57.518Z,28.21
2022-08-17T11:58:38.597Z,28.22
2022-08-17T12:01:07.506Z,28.21
2022-08-17T12:03:55.819Z,28.23
2022-08-17T12:06:42.929Z,28.23
2022-08-17T12:09:14.087Z,28.23
2022-08-17T12:12:11.336Z,28.24
2022-08-17T12:15:05.771Z,28.25
2022-08-17T12:17:41.550Z,28.25
2022-08-17T12:20:15.062Z,28.25
2022-08-17T12:22:53.461Z,28.26
2022-08-17T12:25:23.001Z,28.27
2022-08-17T12:28:06.099Z,28.27
2022-08-17T12:30:37.481Z,28.26
2022-08-17T12:33:12.793Z,28.28
2022-08-17T12:35:40.870Z,28.27
2022-08-17T12:38:32.248Z,28.27
2022-08-17T12:40:59.859Z,28.28
2022-08-17T12:43:30.454Z,28.27
2022-08-17T12:46:01.205Z,28.27
2022-08-17T12:48:59.373Z,28.27
2022-08-17T12:51:29.206Z,28.27
2022-08-17T12:53:57.413Z,28.28
2022-08-17T12:56:25.587Z,28.30
2022-08-17T12:58:55.665Z,28.31
2022-08-17T13:01:26.290Z,28.32
2022-08-17T13:03:59.805Z,28.32
2022-08-17T13:06:28.974Z,28.33
2022-08-17T13:08:57.021Z,28.33
2022-08-17T13:11:25.457Z,28.34
2022-08-17T13:13:55.065Z,28.34
2022-08-17T13:16:26.508Z,28.35
2022-08-17T13:18:55.537Z,28.36
2022-08-17T13:21:27.768Z,28.37
2022-08-17T13:23:57.879Z,28.38
2022-08-17T13:26:29.548Z,28.37
2022-08-17T13:28:57.562Z,28.37
2022-08-17T13:31:39.415Z,28.36
2022-08-17T13:34:33.413Z,28.36
2022-08-17T13:37:34.768Z,28.36
2022-08-17T13:40:26.038Z,28.35
2022-08-17T13:42:54.418Z,28.34
2022-08-17T13:45:40.317Z,28.36
2022-08-17T13:48:14.519Z,28.37
2022-08-17T13:50:43.701Z,28.37
2022-08-17T13:53:19.995Z,28.37
2022-08-17T13:55:49.363Z,28.37
2022-08-17T13:58:21.690Z,28.38
2022-08-17T14:00:51.599Z,28.38
2022-08-17T14:03:21.272Z,28.35
2022-08-17T14:05:50.133Z,28.40
2022-08-17T14:08:18.784Z,28.39
2022-08-17T14:10:47.249Z,28.39
2022-08-17T14:13:15.644Z,28.39
2022-08-17T14:15:56.267Z,28.39
2022-08-17T14:18:35.495Z,28.41
2022-08-17T14:21:14.498Z,28.40
2022-08-17T14:23:54.445Z,28.40
2022-08-17T14:26:23.338Z,28.41
2022-08-17T14:28:56.286Z,28.41
2022-08-17T14:31:25.072Z,28.40
2022-08-17T14:33:54.669Z,28.40
2022-08-17T14:36:22.652Z,28.40
2022-08-17T14:38:51.021Z,28.40
2022-08-17T14:41:22.195Z,28.40
2022-08-17T14:43:51.384Z,28.40
2022-08-17T14:46:19.378Z,28.41
2022-08-17T14:48:47.580Z,28.40
2022-08-17T14:51:17.152Z,28.41
2022-08-17T14:53:45.882Z,28.42
2022-08-17T14:56:14.473Z,28.42
2022-08-17T14:58:42.929Z,28.42
2022-08-17T15:01:11.088Z,28.43
2022-08-17T15:03:40.867Z,28.43
2022-08-17T15:06:09.425Z,28.44
2022-08-17T15:08:39.040Z,28.45
2022-08-17T15:11:07.356Z,28.45
2022-08-17T15:13:52.217Z,28.44
2022-08-17T15:16:21.574Z,28.46
2022-08-17T15:18:50.204Z,28.45
2022-08-17T15:21:18.625Z,28.46
2022-08-17T15:23:48.030Z,28.45
2022-08-17T15:26:16.894Z,28.45
2022-08-17T15:28:44.874Z,28.46
2022-08-17T15:31:31.715Z,28.44
2022-08-17T15:34:00.176Z,28.44
2022-08-17T15:36:28.185Z,28.44
2022-08-17T15:38:58.929Z,28.44
2022-08-17T15:41:28.170Z,28.45
2022-08-17T15:43:56.295Z,28.44
2022-08-17T15:46:25.632Z,28.44
2022-08-17T15:48:55.029Z,28.45
2022-08-17T15:51:24.602Z,28.44
2022-08-17T15:53:54.689Z,28.45
2022-08-17T15:56:24.025Z,28.45
2022-08-17T15:58:52.125Z,28.45
2022-08-17T16:02:33.663Z,28.46
2022-08-17T16:04:26.667Z,28.46
2022-08-17T16:06:59.262Z,28.47
2022-08-17T16:09:27.411Z,28.46
2022-08-17T16:11:56.846Z,28.46
2022-08-17T16:14:32.477Z,28.47
2022-08-17T16:17:02.895Z,28.47
2022-08-17T16:19:30.913Z,28.47
2022-08-17T16:21:58.921Z,28.46
2022-08-17T16:24:26.942Z,28.45
2022-08-17T16:26:56.895Z,28.45
2022-08-17T16:29:25.027Z,28.45
2022-08-17T16:31:53.433Z,28.45
2022-08-17T16:34:21.482Z,28.45
2022-08-17T16:36:55.795Z,28.44
2022-08-17T16:39:26.417Z,28.44
2022-08-17T16:41:54.606Z,28.44
2022-08-17T16:44:24.039Z,28.44
2022-08-17T16:46:52.080Z,28.45
2022-08-17T16:49:35.426Z,28.45
2022-08-17T16:52:10.017Z,28.45
2022-08-17T16:54:39.097Z,28.46
2022-08-17T16:57:07.131Z,28.46
2022-08-17T16:59:40.811Z,28.46
2022-08-17T17:02:13.845Z,28.46
2022-08-17T17:04:44.411Z,28.47
2022-08-17T17:07:21.367Z,28.46
2022-08-17T17:09:52.637Z,28.47
2022-08-17T17:12:21.011Z,28.47
2022-08-17T17:15:10.750Z,28.46
2022-08-17T17:17:39.561Z,28.45
2022-08-17T17:20:10.142Z,28.46
2022-08-17T17:22:42.849Z,28.44
2022-08-17T17:25:14.595Z,28.45
2022-08-17T17:27:47.269Z,28.46
2022-08-17T17:30:20.704Z,28.44
2022-08-17T17:32:51.234Z,28.44
2022-08-17T17:35:21.828Z,28.43
2022-08-17T17:37:49.953Z,28.43
2022-08-17T17:40:21.537Z,28.44
2022-08-17T17:42:49.973Z,28.44
2022-08-17T17:45:21.740Z,28.44
2022-08-17T17:47:49.918Z,28.44
2022-08-17T17:50:18.398Z,28.44
2022-08-17T17:52:48.659Z,28.43
2022-08-17T17:55:24.413Z,28.44
2022-08-17T17:57:59.202Z,28.43
2022-08-17T18:00:33.153Z,28.44
2022-08-17T18:03:11.125Z,28.44
2022-08-17T18:05:47.622Z,28.44
2022-08-17T18:08:34.052Z,28.44
2022-08-17T18:11:08.810Z,28.43
2022-08-17T18:13:43.987Z,28.44
2022-08-17T18:16:14.286Z,28.43
2022-08-17T18:18:44.625Z,28.43
2022-08-17T18:21:16.799Z,28.43
2022-08-17T18:23:52.180Z,28.43
2022-08-17T18:26:41.920Z,28.43
2022-08-17T18:29:46.066Z,28.43
2022-08-17T18:32:36.732Z,28.43
2022-08-17T18:35:30.294Z,28.45
2022-08-17T18:38:20.981Z,28.44
2022-08-17T18:40:58.275Z,28.44
2022-08-17T18:43:27.478Z,28.43
2022-08-17T18:46:29.525Z,28.45
2022-08-17T18:49:00.682Z,28.46
2022-08-17T18:51:40.315Z,28.47
2022-08-17T18:54:18.269Z,28.49
2022-08-17T18:56:50.400Z,28.51
2022-08-17T18:59:39.895Z,28.53
2022-08-17T19:02:44.215Z,28.54
2022-08-17T19:05:18.480Z,28.54
2022-08-17T19:07:47.105Z,28.54
2022-08-17T19:10:20.613Z,28.55
2022-08-17T19:12:50.328Z,28.55
2022-08-17T19:15:20.001Z,28.56
2022-08-17T19:17:52.182Z,28.56
2022-08-17T19:20:23.760Z,28.56
2022-08-17T19:22:58.076Z,28.56
2022-08-17T19:25:27.676Z,28.55
2022-08-17T19:28:03.044Z,28.56
2022-08-17T19:30:31.406Z,28.55
2022-08-17T19:32:59.530Z,28.55
2022-08-17T19:35:35.781Z,28.55
2022-08-17T19:38:12.904Z,28.55
2022-08-17T19:40:52.732Z,28.55
2022-08-17T19:43:24.615Z,28.55
2022-08-17T19:45:58.372Z,28.54
2022-08-17T19:48:35.602Z,28.54
2022-08-17T19:51:06.610Z,28.54
2022-08-17T19:54:03.826Z,28.54
2022-08-17T19:56:31.147Z,28.53
2022-08-17T19:59:02.238Z,28.53
2022-08-17T20:01:35.468Z,28.51
2022-08-17T20:04:08.132Z,28.51
2022-08-17T20:06:40.201Z,28.51
2022-08-17T20:09:15.238Z,28.51
2022-08-17T20:11:45.831Z,28.51
2022-08-17T20:14:15.898Z,28.49
2022-08-17T20:16:43.964Z,28.50
2022-08-17T20:19:18.081Z,28.50
2022-08-17T20:21:50.882Z,28.49
2022-08-17T20:24:21.491Z,28.49
2022-08-17T20:26:58.604Z,28.49
2022-08-17T20:29:46.993Z,28.48
2022-08-17T20:32:23.893Z,28.48
2022-08-17T20:35:04.328Z,28.47
2022-08-17T20:37:34.146Z,28.48
2022-08-17T20:40:22.104Z,28.46
2022-08-17T20:42:50.078Z,28.45
2022-08-17T20:45:43.701Z,28.47
2022-08-17T20:48:36.443Z,28.43
2022-08-17T20:51:28.221Z,28.44
2022-08-17T20:54:37.973Z,28.42
2022-08-17T20:57:13.669Z,28.42
2022-08-17T21:00:00.255Z,28.43
2022-08-17T21:02:29.475Z,28.38
2022-08-17T21:05:04.017Z,28.41
2022-08-17T21:07:58.091Z,28.42
2022-08-17T21:10:31.902Z,28.41
2022-08-17T21:13:23.054Z,28.39
2022-08-17T21:15:54.394Z,28.37
2022-08-17T21:18:26.352Z,28.38
2022-08-17T21:21:02.958Z,28.37
2022-08-17T21:23:40.360Z,28.36
2022-08-17T21:26:26.751Z,28.34
2022-08-17T21:29:32.592Z,28.30
2022-08-17T21:32:24.318Z,28.22
2022-08-17T21:35:26.772Z,28.18
2022-08-17T21:37:59.667Z,28.14
2022-08-17T21:40:30.318Z,28.12
2022-08-17T21:43:01.725Z,28.11
2022-08-17T21:45:35.159Z,28.11
2022-08-17T21:48:16.490Z,28.09
2022-08-17T21:50:47.585Z,28.09
2022-08-17T21:53:23.401Z,28.07
2022-08-17T21:55:53.110Z,28.05
2022-08-17T21:58:28.870Z,28.05
2022-08-17T22:01:31.864Z,28.03
2022-08-17T22:04:05.036Z,28.00
2022-08-17T22:06:41.394Z,28.00
2022-08-17T22:09:17.965Z,28.00
2022-08-17T22:12:00.272Z,27.98
2022-08-17T22:14:52.375Z,27.94
2022-08-17T22:17:25.118Z,27.91
2022-08-17T22:19:55.846Z,27.90
2022-08-17T22:22:31.432Z,27.88
2022-08-17T22:25:03.518Z,27.86
2022-08-17T22:27:57.567Z,27.86
2022-08-17T22:30:36.597Z,27.87
2022-08-17T22:33:37.630Z,27.84
2022-08-17T22:36:15.062Z,27.81
2022-08-17T22:38:44.396Z,27.82
2022-08-17T22:41:46.616Z,27.84
2022-08-17T22:44:25.734Z,27.82
2022-08-17T22:47:00.315Z,27.80
2022-08-17T22:49:32.805Z,27.78
2022-08-17T22:52:07.345Z,27.73
2022-08-17T22:54:54.267Z,27.70
2022-08-17T22:57:52.662Z,27.70
2022-08-17T23:00:37.334Z,27.68
2022-08-17T23:03:15.864Z,27.61
2022-08-17T23:05:48.159Z,27.58
2022-08-17T23:08:21.429Z,27.57
2022-08-17T23:10:50.639Z,27.58
2022-08-17T23:13:21.323Z,27.55
2022-08-17T23:15:51.229Z,27.51
2022-08-17T23:18:20.416Z,27.47
2022-08-17T23:20:51.458Z,27.46
2022-08-17T23:23:23.710Z,27.41
2022-08-17T23:25:54.633Z,27.44
2022-08-17T23:28:23.642Z,27.44
2022-08-17T23:30:51.687Z,27.43
2022-08-17T23:33:21.311Z,27.42
2022-08-17T23:35:52.760Z,27.39
2022-08-17T23:38:22.148Z,27.38
2022-08-17T23:40:51.610Z,27.39
2022-08-17T23:43:25.198Z,27.40
2022-08-17T23:45:59.743Z,27.42
2022-08-17T23:48:36.615Z,27.45
2022-08-17T23:51:10.281Z,27.45
2022-08-17T23:53:41.947Z,27.40
2022-08-17T23:56:11.775Z,27.38
2022-08-17T23:58:41.537Z,27.34
